Lesage, West Virginia
Current Conditions -  °F | °C
As of 12:51 PM on Tuesday 21 Oct 2014 (Local Time) from KHTS Reporting Station
Overcast Overcast  
Wind Chill: 13°   Ceiling: 6000
Heat Index: 13°   Visibility: 10mi
Dew Point:   Wind: 10mph
Humidity: 67%   Direction: 320°NW
Pressure: 29.98"   Gusts: NA
Location:  38.51°N, 82.3°W
Report Text: KHTS 211651Z 32009KT 10SM FEW039 OVC060 13/07 A2998 RMK AO2 SLP152 T01280067
Loading
Personal Weather Stations






























Interactive Weather Map
Tropical Storm Tracking
New forecast layout! Learn more

10-Day Weather Forecast

Advertisements
Track Severe Weather on mobile